Rechercher aéroport 
image banner adimage banner adimage banner ad
image banner ad

CN38 - Flying B Ranch

Situé à Franklin, United States

ICAO - CN38, IATA -

Données fournies par Airmate  

Information générale

Coordonnées: N38°20'29" W121°26'15"
Élévation : 19 feet MSL.
Variation magnétique : 16° East
Voir autres Aéroports à California

Données opérationnelles

Special qualification required
Heure actuelle UTC:
Heure actuelle locale:
Météo à : KSAC - Sacramento Executive ( 20 km )
METAR: KSAC 251553Z 20007KT 10SM CLR 19/12 A2991 RMK AO2 SLP127 T01940117
TAF: KSAC 251120Z 2512/2612 18005KT P6SM SCT200 FM260000 21010G17KT P6SM FEW150 BKN250
Voir NOTAMs / SUP AIP / TFR affectant cet aéroport [VIEW]
Fréquences de communication: [VIEW]

Pistes:

Identifiant RWYQFULongueur (ft)Largeur (ft)SurfaceLDA (ft)
14138550GRASS
32138550GRASS

Coordonnées de l'aéroport

Adresse: Franklin United States

Vue satellite de CN38